This is the latest recevied weather packets stored in our database for station/object W2SRH. If no packets are shown the sender has not sent any weather packets the latest 10 day(s).
| Time | Temp. | Humidity | Pressure | Rain* | Wind** | Luminosity | Snow |
|---|---|---|---|---|---|---|---|
| 1777930654 | 23.33° C | 28% | 1001.3 hPa | 0 mm | 0.45 m/s, 252° | - | - |
| 1777930146 | 23.33° C | 28% | 1001.4 hPa | 0 mm | 1.34 m/s, 287° | - | - |
| 1777929545 | 23.33° C | 28% | 1001.3 hPa | 0 mm | 0.45 m/s, 252° | - | - |
| 1777928945 | 22.78° C | 28% | 1001.4 hPa | 0 mm | 1.79 m/s, 266° | - | - |
| 1777928730 | 22.78° C | 28% | 1001.5 hPa | 0 mm | 0.89 m/s, 247° | - | - |
| 1777928345 | 22.78° C | 27% | 1001.4 hPa | 0 mm | 1.79 m/s, 267° | - | - |
| 1777927778 | 23.33° C | 27% | 1001.4 hPa | 0 mm | 1.34 m/s, 258° | - | - |
| 1777927745 | 23.33° C | 27% | 1001.4 hPa | 0 mm | 1.34 m/s, 258° | - | - |
| 1777927144 | 22.78° C | 28% | 1001.5 hPa | 0 mm | 0.89 m/s, 247° | - | - |
| 1777926544 | 23.33° C | 27% | 1001.4 hPa | 0 mm | 1.34 m/s, 267° | - | - |
| 1777925943 | 22.78° C | 27% | 1001.3 hPa | 0 mm | 0.89 m/s, 176° | - | - |
| 1777925345 | 22.78° C | 27% | 1001.6 hPa | 0 mm | 1.34 m/s, 295° | - | - |
| 1777924745 | 22.78° C | 27% | 1001.6 hPa | 0 mm | 1.79 m/s, 275° | - | - |
| 1777924144 | 22.22° C | 27% | 1001.6 hPa | 0 mm | 2.24 m/s, 274° | - | - |
| 1777923543 | 22.78° C | 27% | 1001.7 hPa | 0 mm | 1.34 m/s, 286° | - | - |
| 1777922949 | 22.78° C | 27% | 1001.8 hPa | 0 mm | 0.89 m/s, 249° | - | - |
| 1777922345 | 22.78° C | 27% | 1001.9 hPa | 0 mm | 1.34 m/s, 260° | - | - |
| 1777921745 | 22.22° C | 27% | 1002 hPa | 0 mm | 1.79 m/s, 249° | - | - |
| 1777921145 | 22.22° C | 27% | 1002 hPa | 0 mm | 0.89 m/s, 211° | - | - |
| 1777920544 | 22.22° C | 27% | 1002.5 hPa | 0 mm | 0.89 m/s, 211° | - | - |
| 1777919945 | 22.22° C | 27% | 1002.4 hPa | 0 mm | 1.34 m/s, 254° | - | - |
| 1777919345 | 21.67° C | 27% | 1002.6 hPa | 0 mm | 1.34 m/s, 274° | - | - |
| 1777918745 | 22.22° C | 27% | 1002.8 hPa | 0 mm | 1.79 m/s, 280° | - | - |
| 1777918144 | 22.22° C | 28% | 1002.8 hPa | 0 mm | 0.45 m/s, 194° | - | - |
| 1777917545 | 21.67° C | 27% | 1003 hPa | 0 mm | 1.34 m/s, 277° | - | - |
* Rain latest hour (hover to see other rain measurements)
** Current wind speed in m/s (hover to see current wind gust speed)